Upper Jay, New York
Current Conditions -  °F | °C
As of 7:51 AM on Wednesday 22 Oct 2014 (Local Time) from KSLK Reporting Station
Haze Haze  
Wind Chill: 34°   Ceiling: 200
Heat Index: 40°   Visibility: 3mi
Dew Point: 40°   Wind: 8mph
Humidity: 100%   Direction: 30°NNE
Pressure: 30.13"   Gusts: NA
Location:  44.34°N, 73.78°W
Report Text: KSLK 221151Z AUTO 03007KT 3SM BR OVC002 04/04 A3013 RMK AO2 SLP214 70014 T00440044 10050 20044 53014
Loading
Personal Weather Stations






























Interactive Weather Map New forecast layout! Learn more

10-Day Weather Forecast

Advertisements
Track Severe Weather on mobile